< < Back
Terminal Aerodrome Forecast


Current Version              Previous Versions:   1  2  3  4  5  6  7  8  9  

Terminal Aerodrome Forecast

714
FTUS42 KFFC 191700
TAFMCN
TAF
KMCN 191730Z 1918/2018 10008KT P6SM BKN040
      TEMPO 1918/1920 BKN030
     FM200100 08003KT P6SM FEW060
     FM200900 07004KT 5SM BR OVC010
     FM201500 06010G17KT P6SM SCT035=



Latest METAR

070
SAUS80 KWBC 200400
MTRMCN
METAR KMCN 200353Z AUTO 06005KT 10SM CLR 20/19 A3010 RMK AO2 SLP190
T02000194 TSNO


USA.gov is the U.S. government's official web portal to all federal, state and local government web resources and services.